sensor_id;sensor_type;location;lat;lon;timestamp;P1;durP1;ratioP1;P2;durP2;ratioP2
21943;SDS011;11136;48.778;9.126;2023-07-20T00:01:52;2.72;;;1.77;;
21943;SDS011;11136;48.778;9.126;2023-07-20T00:04:18;3.55;;;1.80;;
21943;SDS011;11136;48.778;9.126;2023-07-20T00:06:44;3.45;;;1.73;;
21943;SDS011;11136;48.778;9.126;2023-07-20T00:09:10;2.03;;;1.55;;
21943;SDS011;11136;48.778;9.126;2023-07-20T00:11:36;2.95;;;1.98;;
21943;SDS011;11136;48.778;9.126;2023-07-20T00:14:04;7.80;;;2.15;;
21943;SDS011;11136;48.778;9.126;2023-07-20T00:16:30;3.15;;;1.50;;
21943;SDS011;11136;48.778;9.126;2023-07-20T00:18:55;3.33;;;1.65;;
21943;SDS011;11136;48.778;9.126;2023-07-20T00:21:21;2.05;;;1.58;;
21943;SDS011;11136;48.778;9.126;2023-07-20T00:23:46;3.60;;;2.03;;
21943;SDS011;11136;48.778;9.126;2023-07-20T00:26:12;2.67;;;1.80;;
21943;SDS011;11136;48.778;9.126;2023-07-20T00:28:38;5.43;;;1.80;;
21943;SDS011;11136;48.778;9.126;2023-07-20T00:31:04;3.15;;;1.50;;
21943;SDS011;11136;48.778;9.126;2023-07-20T00:33:29;8.00;;;2.30;;
21943;SDS011;11136;48.778;9.126;2023-07-20T00:35:55;2.30;;;1.40;;
21943;SDS011;11136;48.778;9.126;2023-07-20T00:38:21;2.30;;;1.67;;
21943;SDS011;11136;48.778;9.126;2023-07-20T00:40:47;4.35;;;1.80;;
21943;SDS011;11136;48.778;9.126;2023-07-20T00:43:14;5.25;;;2.22;;
21943;SDS011;11136;48.778;9.126;2023-07-20T00:45:40;2.90;;;1.70;;
21943;SDS011;11136;48.778;9.126;2023-07-20T00:48:06;4.03;;;2.13;;
21943;SDS011;11136;48.778;9.126;2023-07-20T00:50:32;5.50;;;2.10;;
21943;SDS011;11136;48.778;9.126;2023-07-20T00:52:59;3.45;;;1.65;;
21943;SDS011;11136;48.778;9.126;2023-07-20T00:55:25;4.07;;;1.70;;
21943;SDS011;11136;48.778;9.126;2023-07-20T00:57:52;5.72;;;1.88;;
21943;SDS011;11136;48.778;9.126;2023-07-20T01:00:18;2.42;;;1.77;;
21943;SDS011;11136;48.778;9.126;2023-07-20T01:02:44;5.60;;;2.15;;
21943;SDS011;11136;48.778;9.126;2023-07-20T01:05:10;4.57;;;2.10;;
21943;SDS011;11136;48.778;9.126;2023-07-20T01:07:43;4.53;;;1.55;;
21943;SDS011;11136;48.778;9.126;2023-07-20T01:10:19;4.05;;;1.95;;
21943;SDS011;11136;48.778;9.126;2023-07-20T01:12:51;4.97;;;1.83;;
21943;SDS011;11136;48.778;9.126;2023-07-20T01:15:17;2.15;;;1.70;;
21943;SDS011;11136;48.778;9.126;2023-07-20T01:17:44;7.05;;;1.63;;
21943;SDS011;11136;48.778;9.126;2023-07-20T01:20:10;4.20;;;2.00;;
21943;SDS011;11136;48.778;9.126;2023-07-20T01:34:00;2.88;;;2.03;;
21943;SDS011;11136;48.778;9.126;2023-07-20T01:36:29;3.25;;;2.08;;
21943;SDS011;11136;48.778;9.126;2023-07-20T01:38:57;4.18;;;2.08;;
21943;SDS011;11136;48.778;9.126;2023-07-20T01:41:23;4.00;;;1.63;;
21943;SDS011;11136;48.778;9.126;2023-07-20T01:43:49;4.18;;;2.03;;
21943;SDS011;11136;48.778;9.126;2023-07-20T01:46:14;3.88;;;2.28;;
21943;SDS011;11136;48.778;9.126;2023-07-20T01:48:40;3.35;;;1.75;;
21943;SDS011;11136;48.778;9.126;2023-07-20T01:51:06;4.10;;;2.22;;
21943;SDS011;11136;48.778;9.126;2023-07-20T01:53:31;3.90;;;1.83;;
21943;SDS011;11136;48.778;9.126;2023-07-20T01:55:57;3.28;;;1.80;;
21943;SDS011;11136;48.778;9.126;2023-07-20T01:58:24;5.22;;;2.13;;
21943;SDS011;11136;48.778;9.126;2023-07-20T02:00:49;4.45;;;2.22;;
21943;SDS011;11136;48.778;9.126;2023-07-20T02:03:15;3.15;;;1.90;;
21943;SDS011;11136;48.778;9.126;2023-07-20T02:05:43;2.53;;;1.83;;
21943;SDS011;11136;48.778;9.126;2023-07-20T02:08:10;4.63;;;2.55;;
21943;SDS011;11136;48.778;9.126;2023-07-20T02:10:35;2.28;;;1.88;;
21943;SDS011;11136;48.778;9.126;2023-07-20T02:13:01;5.63;;;2.38;;
21943;SDS011;11136;48.778;9.126;2023-07-20T02:15:27;4.90;;;1.85;;
21943;SDS011;11136;48.778;9.126;2023-07-20T02:17:53;3.53;;;1.60;;
21943;SDS011;11136;48.778;9.126;2023-07-20T02:20:19;3.25;;;2.10;;
21943;SDS011;11136;48.778;9.126;2023-07-20T02:22:45;2.40;;;2.00;;
21943;SDS011;11136;48.778;9.126;2023-07-20T02:25:10;2.20;;;2.00;;
21943;SDS011;11136;48.778;9.126;2023-07-20T02:27:36;4.45;;;2.05;;
21943;SDS011;11136;48.778;9.126;2023-07-20T02:30:02;3.92;;;1.98;;
21943;SDS011;11136;48.778;9.126;2023-07-20T02:32:29;5.60;;;2.22;;
21943;SDS011;11136;48.778;9.126;2023-07-20T02:34:55;4.65;;;1.60;;
21943;SDS011;11136;48.778;9.126;2023-07-20T02:37:21;8.55;;;2.13;;
21943;SDS011;11136;48.778;9.126;2023-07-20T02:39:46;3.13;;;1.77;;
21943;SDS011;11136;48.778;9.126;2023-07-20T02:42:12;3.35;;;1.67;;
21943;SDS011;11136;48.778;9.126;2023-07-20T02:44:38;3.60;;;1.63;;
21943;SDS011;11136;48.778;9.126;2023-07-20T02:47:04;3.47;;;2.05;;
21943;SDS011;11136;48.778;9.126;2023-07-20T02:49:30;4.03;;;2.10;;
21943;SDS011;11136;48.778;9.126;2023-07-20T02:51:55;4.72;;;1.90;;
21943;SDS011;11136;48.778;9.126;2023-07-20T02:54:21;3.83;;;2.13;;
21943;SDS011;11136;48.778;9.126;2023-07-20T02:56:46;4.63;;;1.92;;
21943;SDS011;11136;48.778;9.126;2023-07-20T02:59:12;4.05;;;1.98;;
21943;SDS011;11136;48.778;9.126;2023-07-20T03:01:37;3.45;;;2.13;;
21943;SDS011;11136;48.778;9.126;2023-07-20T03:04:03;4.95;;;1.83;;
21943;SDS011;11136;48.778;9.126;2023-07-20T03:06:29;3.13;;;2.33;;
21943;SDS011;11136;48.778;9.126;2023-07-20T03:08:54;3.17;;;1.88;;
21943;SDS011;11136;48.778;9.126;2023-07-20T03:11:20;3.42;;;2.13;;
21943;SDS011;11136;48.778;9.126;2023-07-20T03:13:46;5.28;;;2.35;;
21943;SDS011;11136;48.778;9.126;2023-07-20T03:16:13;3.08;;;2.10;;
21943;SDS011;11136;48.778;9.126;2023-07-20T03:18:40;4.15;;;1.85;;
21943;SDS011;11136;48.778;9.126;2023-07-20T03:21:07;2.53;;;1.98;;
21943;SDS011;11136;48.778;9.126;2023-07-20T03:23:33;6.00;;;1.90;;
21943;SDS011;11136;48.778;9.126;2023-07-20T03:25:59;4.68;;;1.75;;
21943;SDS011;11136;48.778;9.126;2023-07-20T03:28:25;7.40;;;1.77;;
21943;SDS011;11136;48.778;9.126;2023-07-20T03:30:54;3.72;;;2.60;;
21943;SDS011;11136;48.778;9.126;2023-07-20T03:33:27;3.00;;;1.98;;
21943;SDS011;11136;48.778;9.126;2023-07-20T03:35:54;5.85;;;2.67;;
21943;SDS011;11136;48.778;9.126;2023-07-20T03:38:21;4.60;;;2.20;;
21943;SDS011;11136;48.778;9.126;2023-07-20T03:40:53;4.00;;;1.98;;
21943;SDS011;11136;48.778;9.126;2023-07-20T03:43:23;3.83;;;1.65;;
21943;SDS011;11136;48.778;9.126;2023-07-20T03:45:50;3.53;;;1.92;;
21943;SDS011;11136;48.778;9.126;2023-07-20T03:48:17;5.95;;;2.55;;
21943;SDS011;11136;48.778;9.126;2023-07-20T03:50:44;4.03;;;1.98;;
21943;SDS011;11136;48.778;9.126;2023-07-20T03:53:10;6.30;;;2.17;;
21943;SDS011;11136;48.778;9.126;2023-07-20T03:55:40;6.40;;;2.20;;
21943;SDS011;11136;48.778;9.126;2023-07-20T03:58:16;4.65;;;2.05;;
21943;SDS011;11136;48.778;9.126;2023-07-20T04:00:50;2.00;;;1.80;;
21943;SDS011;11136;48.778;9.126;2023-07-20T04:03:17;4.25;;;2.13;;
21943;SDS011;11136;48.778;9.126;2023-07-20T04:05:43;8.35;;;2.50;;
21943;SDS011;11136;48.778;9.126;2023-07-20T04:08:09;4.75;;;2.00;;
21943;SDS011;11136;48.778;9.126;2023-07-20T04:10:36;5.32;;;2.13;;
21943;SDS011;11136;48.778;9.126;2023-07-20T04:13:02;4.85;;;1.85;;
21943;SDS011;11136;48.778;9.126;2023-07-20T04:15:28;3.63;;;1.90;;
21943;SDS011;11136;48.778;9.126;2023-07-20T04:17:53;4.00;;;1.83;;
21943;SDS011;11136;48.778;9.126;2023-07-20T04:20:21;3.72;;;1.90;;
21943;SDS011;11136;48.778;9.126;2023-07-20T04:22:50;5.70;;;2.38;;
21943;SDS011;11136;48.778;9.126;2023-07-20T04:25:17;4.25;;;2.10;;
21943;SDS011;11136;48.778;9.126;2023-07-20T04:27:43;5.05;;;2.42;;
21943;SDS011;11136;48.778;9.126;2023-07-20T04:30:09;4.93;;;2.13;;
21943;SDS011;11136;48.778;9.126;2023-07-20T04:32:36;3.15;;;1.95;;
21943;SDS011;11136;48.778;9.126;2023-07-20T04:35:05;7.47;;;2.10;;
21943;SDS011;11136;48.778;9.126;2023-07-20T04:37:32;8.27;;;2.20;;
21943;SDS011;11136;48.778;9.126;2023-07-20T04:39:58;3.78;;;1.92;;
21943;SDS011;11136;48.778;9.126;2023-07-20T04:42:24;3.30;;;1.45;;
21943;SDS011;11136;48.778;9.126;2023-07-20T04:44:49;4.05;;;2.05;;
21943;SDS011;11136;48.778;9.126;2023-07-20T04:47:15;2.22;;;1.63;;
21943;SDS011;11136;48.778;9.126;2023-07-20T04:49:40;3.83;;;1.80;;
21943;SDS011;11136;48.778;9.126;2023-07-20T04:52:07;3.30;;;1.65;;
21943;SDS011;11136;48.778;9.126;2023-07-20T04:54:32;2.85;;;1.88;;
21943;SDS011;11136;48.778;9.126;2023-07-20T04:56:58;3.13;;;1.90;;
21943;SDS011;11136;48.778;9.126;2023-07-20T04:59:23;3.10;;;2.00;;
21943;SDS011;11136;48.778;9.126;2023-07-20T05:01:49;2.13;;;1.45;;
21943;SDS011;11136;48.778;9.126;2023-07-20T05:04:14;4.88;;;1.90;;
21943;SDS011;11136;48.778;9.126;2023-07-20T05:06:40;4.35;;;1.48;;
21943;SDS011;11136;48.778;9.126;2023-07-20T05:09:06;3.20;;;1.83;;
21943;SDS011;11136;48.778;9.126;2023-07-20T05:11:34;3.67;;;1.80;;
21943;SDS011;11136;48.778;9.126;2023-07-20T05:14:00;2.22;;;1.63;;
21943;SDS011;11136;48.778;9.126;2023-07-20T05:16:25;5.63;;;2.00;;
21943;SDS011;11136;48.778;9.126;2023-07-20T05:18:51;4.70;;;2.28;;
21943;SDS011;11136;48.778;9.126;2023-07-20T05:21:17;6.63;;;1.90;;
21943;SDS011;11136;48.778;9.126;2023-07-20T05:23:42;2.28;;;1.80;;
21943;SDS011;11136;48.778;9.126;2023-07-20T05:26:08;3.95;;;2.28;;
21943;SDS011;11136;48.778;9.126;2023-07-20T05:28:34;3.47;;;2.58;;
21943;SDS011;11136;48.778;9.126;2023-07-20T05:31:02;9.10;;;2.28;;
21943;SDS011;11136;48.778;9.126;2023-07-20T05:33:28;4.03;;;1.85;;
21943;SDS011;11136;48.778;9.126;2023-07-20T05:35:54;8.55;;;2.08;;
21943;SDS011;11136;48.778;9.126;2023-07-20T05:38:19;3.25;;;2.00;;
21943;SDS011;11136;48.778;9.126;2023-07-20T05:40:45;3.35;;;1.90;;
21943;SDS011;11136;48.778;9.126;2023-07-20T05:43:11;4.47;;;1.85;;
21943;SDS011;11136;48.778;9.126;2023-07-20T05:45:37;5.78;;;2.38;;
21943;SDS011;11136;48.778;9.126;2023-07-20T05:48:03;3.60;;;1.90;;
21943;SDS011;11136;48.778;9.126;2023-07-20T05:50:29;4.43;;;2.17;;
21943;SDS011;11136;48.778;9.126;2023-07-20T05:52:55;6.20;;;1.80;;
21943;SDS011;11136;48.778;9.126;2023-07-20T05:55:20;3.38;;;1.83;;
21943;SDS011;11136;48.778;9.126;2023-07-20T05:57:46;4.32;;;1.92;;
21943;SDS011;11136;48.778;9.126;2023-07-20T06:00:13;4.07;;;2.40;;
21943;SDS011;11136;48.778;9.126;2023-07-20T06:02:40;3.53;;;2.15;;
21943;SDS011;11136;48.778;9.126;2023-07-20T06:05:08;3.38;;;1.58;;
21943;SDS011;11136;48.778;9.126;2023-07-20T06:07:37;4.65;;;2.20;;
21943;SDS011;11136;48.778;9.126;2023-07-20T06:10:03;5.40;;;2.40;;
21943;SDS011;11136;48.778;9.126;2023-07-20T06:12:30;5.15;;;2.30;;
21943;SDS011;11136;48.778;9.126;2023-07-20T06:14:57;5.57;;;2.40;;
21943;SDS011;11136;48.778;9.126;2023-07-20T06:17:26;4.70;;;2.47;;
21943;SDS011;11136;48.778;9.126;2023-07-20T06:19:51;3.70;;;1.73;;
21943;SDS011;11136;48.778;9.126;2023-07-20T06:22:17;2.88;;;1.67;;
21943;SDS011;11136;48.778;9.126;2023-07-20T06:24:43;5.45;;;2.00;;
21943;SDS011;11136;48.778;9.126;2023-07-20T06:27:09;3.13;;;1.80;;
21943;SDS011;11136;48.778;9.126;2023-07-20T06:29:35;2.67;;;1.60;;
21943;SDS011;11136;48.778;9.126;2023-07-20T06:32:00;5.50;;;2.20;;
21943;SDS011;11136;48.778;9.126;2023-07-20T06:34:26;3.78;;;1.88;;
21943;SDS011;11136;48.778;9.126;2023-07-20T06:36:51;3.42;;;1.85;;
21943;SDS011;11136;48.778;9.126;2023-07-20T06:39:17;5.35;;;2.00;;
21943;SDS011;11136;48.778;9.126;2023-07-20T06:41:42;4.13;;;1.85;;
21943;SDS011;11136;48.778;9.126;2023-07-20T06:44:08;3.47;;;2.28;;
21943;SDS011;11136;48.778;9.126;2023-07-20T06:46:34;5.82;;;2.20;;
21943;SDS011;11136;48.778;9.126;2023-07-20T06:48:59;4.45;;;2.05;;
21943;SDS011;11136;48.778;9.126;2023-07-20T06:51:25;5.93;;;1.65;;
21943;SDS011;11136;48.778;9.126;2023-07-20T06:53:50;8.38;;;2.25;;
21943;SDS011;11136;48.778;9.126;2023-07-20T06:56:16;3.40;;;1.90;;
21943;SDS011;11136;48.778;9.126;2023-07-20T06:58:41;6.53;;;2.17;;
21943;SDS011;11136;48.778;9.126;2023-07-20T07:01:07;5.18;;;1.95;;
21943;SDS011;11136;48.778;9.126;2023-07-20T07:03:33;6.22;;;2.10;;
21943;SDS011;11136;48.778;9.126;2023-07-20T07:05:59;3.78;;;1.92;;
21943;SDS011;11136;48.778;9.126;2023-07-20T07:08:25;5.55;;;2.30;;
21943;SDS011;11136;48.778;9.126;2023-07-20T07:10:51;7.35;;;1.90;;
21943;SDS011;11136;48.778;9.126;2023-07-20T07:13:17;5.68;;;2.35;;
21943;SDS011;11136;48.778;9.126;2023-07-20T07:15:44;9.25;;;2.45;;
21943;SDS011;11136;48.778;9.126;2023-07-20T07:18:11;4.05;;;2.08;;
21943;SDS011;11136;48.778;9.126;2023-07-20T07:20:36;4.47;;;2.30;;
21943;SDS011;11136;48.778;9.126;2023-07-20T07:23:02;2.80;;;1.83;;
21943;SDS011;11136;48.778;9.126;2023-07-20T07:25:27;4.95;;;2.10;;
21943;SDS011;11136;48.778;9.126;2023-07-20T07:27:53;4.90;;;2.38;;
21943;SDS011;11136;48.778;9.126;2023-07-20T07:30:20;6.95;;;1.90;;
21943;SDS011;11136;48.778;9.126;2023-07-20T07:32:46;13.77;;;2.55;;
21943;SDS011;11136;48.778;9.126;2023-07-20T07:35:11;8.30;;;1.50;;
21943;SDS011;11136;48.778;9.126;2023-07-20T07:37:37;3.88;;;1.90;;
21943;SDS011;11136;48.778;9.126;2023-07-20T07:40:03;6.35;;;2.08;;
21943;SDS011;11136;48.778;9.126;2023-07-20T07:42:30;4.72;;;2.30;;
21943;SDS011;11136;48.778;9.126;2023-07-20T07:44:56;7.88;;;2.25;;
21943;SDS011;11136;48.778;9.126;2023-07-20T07:47:22;3.33;;;2.00;;
21943;SDS011;11136;48.778;9.126;2023-07-20T07:49:47;5.05;;;2.03;;
21943;SDS011;11136;48.778;9.126;2023-07-20T07:52:13;4.15;;;2.00;;
21943;SDS011;11136;48.778;9.126;2023-07-20T07:54:39;6.25;;;2.08;;
21943;SDS011;11136;48.778;9.126;2023-07-20T07:57:05;3.28;;;1.85;;
21943;SDS011;11136;48.778;9.126;2023-07-20T07:59:31;6.40;;;2.10;;
21943;SDS011;11136;48.778;9.126;2023-07-20T08:02:01;3.83;;;2.33;;
21943;SDS011;11136;48.778;9.126;2023-07-20T08:04:29;6.38;;;2.53;;
21943;SDS011;11136;48.778;9.126;2023-07-20T08:06:55;4.53;;;1.77;;
21943;SDS011;11136;48.778;9.126;2023-07-20T08:09:20;2.67;;;1.88;;
21943;SDS011;11136;48.778;9.126;2023-07-20T08:11:46;2.70;;;1.95;;
21943;SDS011;11136;48.778;9.126;2023-07-20T08:14:13;2.88;;;2.15;;
21943;SDS011;11136;48.778;9.126;2023-07-20T08:16:38;3.60;;;2.05;;
21943;SDS011;11136;48.778;9.126;2023-07-20T08:19:04;5.20;;;2.30;;
21943;SDS011;11136;48.778;9.126;2023-07-20T08:21:30;3.20;;;1.65;;
21943;SDS011;11136;48.778;9.126;2023-07-20T08:23:55;6.25;;;1.90;;
21943;SDS011;11136;48.778;9.126;2023-07-20T08:26:21;5.20;;;1.95;;
21943;SDS011;11136;48.778;9.126;2023-07-20T08:28:47;4.95;;;1.80;;
21943;SDS011;11136;48.778;9.126;2023-07-20T08:31:13;2.13;;;1.80;;
21943;SDS011;11136;48.778;9.126;2023-07-20T08:33:39;3.58;;;1.92;;
21943;SDS011;11136;48.778;9.126;2023-07-20T08:36:05;3.47;;;2.00;;
21943;SDS011;11136;48.778;9.126;2023-07-20T08:38:31;4.57;;;2.40;;
21943;SDS011;11136;48.778;9.126;2023-07-20T08:40:56;3.78;;;2.40;;
21943;SDS011;11136;48.778;9.126;2023-07-20T08:43:24;3.40;;;1.90;;
21943;SDS011;11136;48.778;9.126;2023-07-20T08:45:50;3.75;;;1.85;;
21943;SDS011;11136;48.778;9.126;2023-07-20T08:48:18;3.00;;;1.77;;
21943;SDS011;11136;48.778;9.126;2023-07-20T08:50:45;2.65;;;1.90;;
21943;SDS011;11136;48.778;9.126;2023-07-20T08:53:14;5.80;;;1.92;;
21943;SDS011;11136;48.778;9.126;2023-07-20T08:55:40;4.28;;;1.88;;
21943;SDS011;11136;48.778;9.126;2023-07-20T08:58:08;3.35;;;1.70;;
21943;SDS011;11136;48.778;9.126;2023-07-20T09:00:36;3.97;;;1.73;;
21943;SDS011;11136;48.778;9.126;2023-07-20T09:03:02;5.18;;;1.75;;
21943;SDS011;11136;48.778;9.126;2023-07-20T09:05:28;2.22;;;1.73;;
21943;SDS011;11136;48.778;9.126;2023-07-20T09:07:55;4.00;;;1.60;;
21943;SDS011;11136;48.778;9.126;2023-07-20T09:10:21;3.50;;;1.77;;
21943;SDS011;11136;48.778;9.126;2023-07-20T09:12:47;2.53;;;1.98;;
21943;SDS011;11136;48.778;9.126;2023-07-20T09:15:14;3.28;;;1.83;;
21943;SDS011;11136;48.778;9.126;2023-07-20T09:17:45;3.53;;;2.08;;
21943;SDS011;11136;48.778;9.126;2023-07-20T09:20:12;1.90;;;1.42;;
21943;SDS011;11136;48.778;9.126;2023-07-20T09:22:40;4.50;;;1.90;;
21943;SDS011;11136;48.778;9.126;2023-07-20T09:25:10;2.90;;;1.80;;
21943;SDS011;11136;48.778;9.126;2023-07-20T09:27:39;3.42;;;1.80;;
21943;SDS011;11136;48.778;9.126;2023-07-20T09:30:15;4.03;;;1.60;;
21943;SDS011;11136;48.778;9.126;2023-07-20T09:32:48;3.33;;;1.70;;
21943;SDS011;11136;48.778;9.126;2023-07-20T09:35:19;4.28;;;1.85;;
21943;SDS011;11136;48.778;9.126;2023-07-20T09:37:49;3.70;;;1.95;;
21943;SDS011;11136;48.778;9.126;2023-07-20T09:40:28;2.83;;;1.67;;
21943;SDS011;11136;48.778;9.126;2023-07-20T09:42:54;5.47;;;1.67;;
21943;SDS011;11136;48.778;9.126;2023-07-20T09:45:35;6.07;;;1.52;;
21943;SDS011;11136;48.778;9.126;2023-07-20T09:48:04;2.83;;;1.60;;
21943;SDS011;11136;48.778;9.126;2023-07-20T09:50:34;5.10;;;1.70;;
21943;SDS011;11136;48.778;9.126;2023-07-20T09:53:06;2.00;;;1.30;;
21943;SDS011;11136;48.778;9.126;2023-07-20T09:55:32;2.63;;;1.52;;
21943;SDS011;11136;48.778;9.126;2023-07-20T09:57:59;4.30;;;1.45;;
21943;SDS011;11136;48.778;9.126;2023-07-20T10:00:25;1.38;;;1.20;;
21943;SDS011;11136;48.778;9.126;2023-07-20T10:02:51;1.85;;;1.35;;
21943;SDS011;11136;48.778;9.126;2023-07-20T10:05:18;2.88;;;1.45;;
21943;SDS011;11136;48.778;9.126;2023-07-20T10:07:48;4.15;;;1.40;;
21943;SDS011;11136;48.778;9.126;2023-07-20T10:10:16;1.58;;;1.30;;
21943;SDS011;11136;48.778;9.126;2023-07-20T10:12:42;1.95;;;1.30;;
21943;SDS011;11136;48.778;9.126;2023-07-20T10:20:39;2.28;;;1.40;;
21943;SDS011;11136;48.778;9.126;2023-07-20T10:23:06;1.65;;;1.30;;
21943;SDS011;11136;48.778;9.126;2023-07-20T10:25:33;5.43;;;1.58;;
21943;SDS011;11136;48.778;9.126;2023-07-20T10:28:03;1.92;;;1.50;;
21943;SDS011;11136;48.778;9.126;2023-07-20T10:30:31;1.98;;;1.45;;
21943;SDS011;11136;48.778;9.126;2023-07-20T10:32:59;2.60;;;1.38;;
21943;SDS011;11136;48.778;9.126;2023-07-20T10:35:27;2.60;;;1.80;;
21943;SDS011;11136;48.778;9.126;2023-07-20T10:37:54;3.55;;;1.40;;
21943;SDS011;11136;48.778;9.126;2023-07-20T10:43:00;2.17;;;1.52;;
21943;SDS011;11136;48.778;9.126;2023-07-20T10:48:14;1.90;;;1.45;;
21943;SDS011;11136;48.778;9.126;2023-07-20T10:50:45;1.20;;;1.10;;
21943;SDS011;11136;48.778;9.126;2023-07-20T10:53:18;2.25;;;1.42;;
21943;SDS011;11136;48.778;9.126;2023-07-20T10:55:44;2.10;;;1.65;;
21943;SDS011;11136;48.778;9.126;2023-07-20T10:58:12;5.40;;;1.35;;
21943;SDS011;11136;48.778;9.126;2023-07-20T11:00:59;4.50;;;1.70;;
21943;SDS011;11136;48.778;9.126;2023-07-20T11:03:27;1.45;;;1.30;;
21943;SDS011;11136;48.778;9.126;2023-07-20T11:05:54;1.83;;;1.33;;
21943;SDS011;11136;48.778;9.126;2023-07-20T11:11:20;3.25;;;1.10;;
21943;SDS011;11136;48.778;9.126;2023-07-20T11:13:58;2.03;;;1.25;;
21943;SDS011;11136;48.778;9.126;2023-07-20T11:21:44;1.98;;;1.30;;
21943;SDS011;11136;48.778;9.126;2023-07-20T11:24:11;4.55;;;1.33;;
21943;SDS011;11136;48.778;9.126;2023-07-20T11:26:53;4.53;;;1.48;;
21943;SDS011;11136;48.778;9.126;2023-07-20T11:29:20;2.85;;;1.75;;
21943;SDS011;11136;48.778;9.126;2023-07-20T11:31:47;2.97;;;1.27;;
21943;SDS011;11136;48.778;9.126;2023-07-20T11:34:13;1.92;;;1.20;;
21943;SDS011;11136;48.778;9.126;2023-07-20T11:36:40;5.20;;;1.30;;
21943;SDS011;11136;48.778;9.126;2023-07-20T11:39:16;9.35;;;1.33;;
21943;SDS011;11136;48.778;9.126;2023-07-20T11:41:48;3.30;;;1.50;;
21943;SDS011;11136;48.778;9.126;2023-07-20T11:44:18;2.38;;;1.20;;
21943;SDS011;11136;48.778;9.126;2023-07-20T11:46:45;3.85;;;1.20;;
21943;SDS011;11136;48.778;9.126;2023-07-20T11:49:11;1.92;;;1.50;;
21943;SDS011;11136;48.778;9.126;2023-07-20T11:51:38;2.70;;;1.17;;
21943;SDS011;11136;48.778;9.126;2023-07-20T11:54:05;1.90;;;1.05;;
21943;SDS011;11136;48.778;9.126;2023-07-20T11:56:33;3.17;;;1.50;;
21943;SDS011;11136;48.778;9.126;2023-07-20T11:58:58;2.28;;;1.20;;
21943;SDS011;11136;48.778;9.126;2023-07-20T12:01:26;1.60;;;1.17;;
21943;SDS011;11136;48.778;9.126;2023-07-20T12:04:03;1.63;;;1.00;;
21943;SDS011;11136;48.778;9.126;2023-07-20T12:06:29;2.60;;;1.27;;
21943;SDS011;11136;48.778;9.126;2023-07-20T12:08:56;2.17;;;1.52;;
21943;SDS011;11136;48.778;9.126;2023-07-20T12:11:32;4.43;;;1.88;;
21943;SDS011;11136;48.778;9.126;2023-07-20T12:13:59;4.40;;;1.52;;
21943;SDS011;11136;48.778;9.126;2023-07-20T12:16:28;3.03;;;1.15;;
21943;SDS011;11136;48.778;9.126;2023-07-20T12:19:05;3.05;;;1.30;;
21943;SDS011;11136;48.778;9.126;2023-07-20T12:21:36;2.15;;;1.50;;
21943;SDS011;11136;48.778;9.126;2023-07-20T12:24:02;1.83;;;1.15;;
21943;SDS011;11136;48.778;9.126;2023-07-20T12:26:29;7.82;;;1.58;;
21943;SDS011;11136;48.778;9.126;2023-07-20T12:28:55;3.75;;;1.40;;
21943;SDS011;11136;48.778;9.126;2023-07-20T12:31:21;2.17;;;1.20;;
21943;SDS011;11136;48.778;9.126;2023-07-20T12:33:48;3.20;;;1.42;;
21943;SDS011;11136;48.778;9.126;2023-07-20T12:36:14;2.17;;;1.33;;
21943;SDS011;11136;48.778;9.126;2023-07-20T12:38:40;1.40;;;1.10;;
21943;SDS011;11136;48.778;9.126;2023-07-20T12:41:07;2.55;;;1.27;;
21943;SDS011;11136;48.778;9.126;2023-07-20T12:43:34;2.65;;;1.05;;
21943;SDS011;11136;48.778;9.126;2023-07-20T12:46:00;2.78;;;1.50;;
21943;SDS011;11136;48.778;9.126;2023-07-20T12:48:26;2.80;;;1.42;;
21943;SDS011;11136;48.778;9.126;2023-07-20T12:50:51;2.45;;;1.25;;
21943;SDS011;11136;48.778;9.126;2023-07-20T12:53:19;2.00;;;1.30;;
21943;SDS011;11136;48.778;9.126;2023-07-20T12:55:44;1.70;;;1.15;;
21943;SDS011;11136;48.778;9.126;2023-07-20T12:58:11;2.60;;;1.38;;
21943;SDS011;11136;48.778;9.126;2023-07-20T13:00:38;1.35;;;1.10;;
21943;SDS011;11136;48.778;9.126;2023-07-20T13:03:04;2.08;;;1.30;;
21943;SDS011;11136;48.778;9.126;2023-07-20T13:05:30;0.98;;;0.77;;
21943;SDS011;11136;48.778;9.126;2023-07-20T13:07:57;4.45;;;1.50;;
21943;SDS011;11136;48.778;9.126;2023-07-20T13:10:23;1.90;;;1.17;;
21943;SDS011;11136;48.778;9.126;2023-07-20T13:12:49;2.10;;;1.00;;
21943;SDS011;11136;48.778;9.126;2023-07-20T13:15:15;2.28;;;1.10;;
21943;SDS011;11136;48.778;9.126;2023-07-20T13:17:41;1.33;;;1.02;;
21943;SDS011;11136;48.778;9.126;2023-07-20T13:20:07;2.80;;;1.20;;
21943;SDS011;11136;48.778;9.126;2023-07-20T13:22:35;2.83;;;1.48;;
21943;SDS011;11136;48.778;9.126;2023-07-20T13:25:01;2.65;;;1.15;;
21943;SDS011;11136;48.778;9.126;2023-07-20T13:27:27;2.28;;;1.42;;
21943;SDS011;11136;48.778;9.126;2023-07-20T13:29:53;3.40;;;1.27;;
21943;SDS011;11136;48.778;9.126;2023-07-20T13:32:18;3.15;;;1.42;;
21943;SDS011;11136;48.778;9.126;2023-07-20T13:34:44;6.78;;;1.45;;
21943;SDS011;11136;48.778;9.126;2023-07-20T13:37:10;1.65;;;0.95;;
21943;SDS011;11136;48.778;9.126;2023-07-20T13:39:37;2.15;;;1.27;;
21943;SDS011;11136;48.778;9.126;2023-07-20T13:42:03;2.40;;;1.35;;
21943;SDS011;11136;48.778;9.126;2023-07-20T13:44:33;3.67;;;1.50;;
21943;SDS011;11136;48.778;9.126;2023-07-20T13:47:01;1.60;;;1.20;;
21943;SDS011;11136;48.778;9.126;2023-07-20T13:49:27;1.23;;;0.95;;
21943;SDS011;11136;48.778;9.126;2023-07-20T13:51:53;2.33;;;1.40;;
21943;SDS011;11136;48.778;9.126;2023-07-20T13:54:18;2.63;;;1.05;;
21943;SDS011;11136;48.778;9.126;2023-07-20T13:56:44;3.58;;;1.30;;
21943;SDS011;11136;48.778;9.126;2023-07-20T13:59:10;2.28;;;1.52;;
21943;SDS011;11136;48.778;9.126;2023-07-20T14:01:35;3.90;;;1.40;;
21943;SDS011;11136;48.778;9.126;2023-07-20T14:04:01;1.70;;;1.30;;
21943;SDS011;11136;48.778;9.126;2023-07-20T14:06:30;10.40;;;1.58;;
21943;SDS011;11136;48.778;9.126;2023-07-20T14:08:57;1.20;;;1.00;;
21943;SDS011;11136;48.778;9.126;2023-07-20T14:11:23;1.38;;;1.10;;
21943;SDS011;11136;48.778;9.126;2023-07-20T14:13:49;1.67;;;1.05;;
21943;SDS011;11136;48.778;9.126;2023-07-20T14:16:16;1.50;;;1.25;;
21943;SDS011;11136;48.778;9.126;2023-07-20T14:18:42;2.00;;;1.45;;
21943;SDS011;11136;48.778;9.126;2023-07-20T14:21:07;4.38;;;1.30;;
21943;SDS011;11136;48.778;9.126;2023-07-20T14:23:33;4.53;;;1.17;;
21943;SDS011;11136;48.778;9.126;2023-07-20T14:26:01;2.70;;;1.35;;
21943;SDS011;11136;48.778;9.126;2023-07-20T14:28:30;1.65;;;1.20;;
21943;SDS011;11136;48.778;9.126;2023-07-20T14:30:56;5.85;;;1.25;;
21943;SDS011;11136;48.778;9.126;2023-07-20T14:33:22;3.15;;;1.45;;
21943;SDS011;11136;48.778;9.126;2023-07-20T14:35:48;2.53;;;1.17;;
21943;SDS011;11136;48.778;9.126;2023-07-20T14:38:13;1.77;;;1.20;;
21943;SDS011;11136;48.778;9.126;2023-07-20T14:40:39;1.60;;;1.10;;
21943;SDS011;11136;48.778;9.126;2023-07-20T14:43:05;1.42;;;1.00;;
21943;SDS011;11136;48.778;9.126;2023-07-20T14:45:30;8.43;;;1.50;;
21943;SDS011;11136;48.778;9.126;2023-07-20T14:47:56;3.15;;;1.17;;
21943;SDS011;11136;48.778;9.126;2023-07-20T14:50:21;1.67;;;0.98;;
21943;SDS011;11136;48.778;9.126;2023-07-20T14:52:47;2.00;;;1.20;;
21943;SDS011;11136;48.778;9.126;2023-07-20T14:55:13;6.57;;;1.10;;
21943;SDS011;11136;48.778;9.126;2023-07-20T14:57:38;3.90;;;1.00;;
21943;SDS011;11136;48.778;9.126;2023-07-20T15:00:05;2.97;;;1.25;;
21943;SDS011;11136;48.778;9.126;2023-07-20T15:02:37;2.55;;;1.00;;
21943;SDS011;11136;48.778;9.126;2023-07-20T15:05:06;2.25;;;1.00;;
21943;SDS011;11136;48.778;9.126;2023-07-20T15:07:32;2.20;;;1.20;;
21943;SDS011;11136;48.778;9.126;2023-07-20T15:09:58;1.52;;;1.38;;
21943;SDS011;11136;48.778;9.126;2023-07-20T15:12:23;1.40;;;1.20;;
21943;SDS011;11136;48.778;9.126;2023-07-20T15:14:51;1.83;;;1.20;;
21943;SDS011;11136;48.778;9.126;2023-07-20T15:17:29;3.08;;;1.08;;